Airfield :
LOGIN :

Register | Disclaimer

   EN    FR    IT 

 










Legend :    VFR   Marginal VFR   IFR   Intensive IFR   Very Intensive IFR
Visi :
Ceiling :
>= 8 km
>= 3000ft
5 to 8 km
1000 to 3000 ft
1500m to 5 km
500 to 1000 ft
800 to 1500m
200 to 500 ft
< 800m
< 200 ft
Symbols :   Thunderstorms  Fog  Heavy snow  Heavy precipitations  Wind > 20 kt
SIGMETs :     Misc.  Thunderstorms  Icing  Turbulence  Mountain Waves  Volcanic Ashes






- Airport Elevation : 1066 ft


EGOM - RAF Spadeadam

CURRENT METAR :
  • 162150Z AUTO 27009KT 9999 // BKN003/// OVC051/// 11/11 Q1000

EXPIRED METARs :
  • 162120Z AUTO 27010KT 4700 -RA SCT002/// SCT010/// 11/11 Q1000
  • 162050Z AUTO 27010KT 9999 -RA OVC001/// 11/11 Q1000
  • 162020Z AUTO 27011KT 5000 RA OVC001/// 11/11 Q0999
  • 161950Z AUTO 27012KT 2800 RA OVC001/// 11/11 Q0999
  • 161920Z AUTO 25011KT 0150 FG OVC001/// 11/10 Q0999
  • 161850Z AUTO 24013KT 0150 +RA OVC001/// 10/10 Q0998
  • 161820Z AUTO 24015KT 0150 -RA OVC001/// 10/10 Q0998
  • 161750Z AUTO 24016KT 1600 RA OVC001/// 10/10 Q0998

Expired Forecast.



MET'MAP, your aeronautical weather chart ! - Copyright ORBIFLY December 2007 - Disclaimer

ORBIFLY MET'MAP TEAM :

Programming & Development : Alexandra Zaïnal
Original concept : Baudouin d'Aumeries
Technical & hardware support : Manuel Goepfert
Assistance : Marc-Olivier Méhu




SOURCES & CREDITS :

   NOAA